Hovedside
METAR-TAF:

METAR-TAF

Lufthavner :

Bornholms lufthavn

Rønne, Danmark

breddegrad: 55-04N, lengdegrad: 014-45E, høyde over havet: 16 m

Gjeldene værobservasjon

Denne rapporten ble laget for 23 minutter siden, klokken 15:20 UTC
Vind 7 kt fra Vest-nordvest, skiftende mellom Vest og Nord-nordvest
Temperatur 13°C
Luftfuktighet 28%
Trykk 1031 hPa
Sikt 10 km eller mer

METAR: EKRN 201520Z AUTO 29007KT 260V330 9999 NCD 13/M05 Q1031

Tid: 17:43 (15:43 UTC)

Varsel

Denne rapporten ble laget for 1 time og 17 minutter siden, klokken 14:26 UTC
Varsel gyldig fra 20. klokken 15 UTC til 20. klokken 22 UTC
Vind 8 kt fra Vest
Sikt 10 km eller mer
ingen skyer under 1500 m og ingen bygeskyer

TAF: EKRN 201426Z 2015/2022 28008KT CAVOK

Værobservasjoner og værvarsel for over 4000 flyplasser (METAR- og TAF-rapporter).

Tilgjengelige stasjoner er representert av de røde og gule prikkene på kartet.

Hold musepekeren over prikken for å se navnet på stasjonen.

Klikk så for å se værobservasjoner og -varsler.

For å forandre kartet kan du klikke på den grønne knappen med svart kryss for å zoome inn, på den grønne knappen med strek for å zoome ut, eller på de grønne pilene for å se tilstøtende kart.


METAR-TAF: